Parkfield, California
Current Conditions -  °F | °C
As of 7:53 PM on Sunday 21 Dec 2014 (Local Time) from KPRB Reporting Station
Few Clouds Few Clouds  
Wind Chill: 58°   Ceiling: Unl
Heat Index: 58°   Visibility: 10mi
Dew Point: 54°   Wind: 8mph
Humidity: 87%   Direction: 20°NNE
Pressure: 30.24"   Gusts: NA
Location:  35.7552°N, 120.63°W
Report Text: KPRB 220353Z AUTO 02007KT 10SM FEW023 14/12 A3024 RMK AO2 SLP240 T01440122 TSNO
Loading
Personal Weather Stations






























Interactive Weather Map New forecast layout! Learn more

10-Day Weather Forecast

Advertisements
Track Severe Weather on mobile